createdAt,value
2023-02-12T00:00:53.296Z,101425.00
2023-02-12T00:03:25.332Z,101440.25
2023-02-12T00:06:01.479Z,101455.59
2023-02-12T00:08:33.615Z,101468.25
2023-02-12T00:11:19.357Z,101486.22
2023-02-12T00:13:51.793Z,101495.38
2023-02-12T00:16:29.321Z,101479.53
2023-02-12T00:19:01.513Z,101498.88
2023-02-12T00:21:36.489Z,101487.28
2023-02-12T00:24:08.626Z,101516.09
2023-02-12T00:26:40.735Z,101486.75
2023-02-12T00:29:13.037Z,101475.81
2023-02-12T00:31:45.055Z,101517.28
2023-02-12T00:34:17.102Z,101482.63
2023-02-12T00:36:49.061Z,101539.53
2023-02-12T00:39:21.079Z,101557.56
2023-02-12T00:41:53.174Z,101566.28
2023-02-12T00:44:25.151Z,101572.34
2023-02-12T00:46:57.597Z,101534.31
2023-02-12T00:49:34.502Z,101544.63
2023-02-12T00:52:06.753Z,101522.38
2023-02-12T00:54:38.969Z,101575.78
2023-02-12T00:57:10.970Z,101547.78
2023-02-12T00:59:43.220Z,101580.09
2023-02-12T01:02:15.168Z,101531.75
2023-02-12T01:04:47.259Z,101582.56
2023-02-12T01:07:19.225Z,101572.44
2023-02-12T01:09:51.283Z,101568.19
2023-02-12T01:12:23.220Z,101544.69
2023-02-12T01:14:55.105Z,101567.56
2023-02-12T01:17:26.967Z,101583.63
2023-02-12T01:20:00.429Z,101592.25
2023-02-12T01:22:32.517Z,101618.59
2023-02-12T01:25:08.109Z,101615.25
2023-02-12T01:27:40.178Z,101591.44
2023-02-12T01:30:13.952Z,101598.25
2023-02-12T01:32:45.906Z,101600.13
2023-02-12T01:35:17.989Z,101627.22
2023-02-12T01:37:49.909Z,101626.41
2023-02-12T01:40:21.819Z,101564.56
2023-02-12T01:42:53.784Z,101593.28
2023-02-12T01:45:28.521Z,101642.47
2023-02-12T01:48:01.360Z,101625.47
2023-02-12T01:50:33.408Z,101617.19
2023-02-12T01:53:05.845Z,101645.97
2023-02-12T01:55:37.830Z,101634.13
2023-02-12T01:58:10.429Z,101655.47
2023-02-12T02:00:42.589Z,101657.94
2023-02-12T02:03:14.853Z,101650.31
2023-02-12T02:06:12.782Z,101658.06
2023-02-12T02:08:44.766Z,101599.56
2023-02-12T02:11:35.346Z,101615.75
2023-02-12T02:14:26.096Z,101643.56
2023-02-12T02:17:04.715Z,101685.19
2023-02-12T02:20:14.505Z,101694.63
2023-02-12T02:23:11.023Z,101708.19
2023-02-12T02:25:48.984Z,101711.53
2023-02-12T02:28:41.653Z,101724.34
2023-02-12T02:31:40.208Z,101679.38
2023-02-12T02:34:23.908Z,101706.53
2023-02-12T02:37:18.062Z,101725.25
2023-02-12T02:40:11.248Z,101726.16
2023-02-12T02:43:06.755Z,101716.72
2023-02-12T02:45:46.220Z,101720.97
2023-02-12T02:48:34.158Z,101706.59
2023-02-12T02:51:15.226Z,101750.91
2023-02-12T02:53:57.869Z,101733.00
2023-02-12T02:56:31.351Z,101748.31
2023-02-12T02:59:11.259Z,101744.94
2023-02-12T03:01:57.360Z,101764.47
2023-02-12T03:04:37.186Z,101785.75
2023-02-12T03:07:27.629Z,101766.25
2023-02-12T03:10:04.494Z,101759.44
2023-02-12T03:13:02.657Z,101779.81
2023-02-12T03:15:41.590Z,101806.22
2023-02-12T03:18:27.320Z,101801.13
2023-02-12T03:21:03.933Z,101835.28
2023-02-12T03:23:55.761Z,101843.78
2023-02-12T03:26:47.211Z,101837.84
2023-02-12T03:29:19.178Z,101820.84
2023-02-12T03:32:15.901Z,101825.16
2023-02-12T03:35:25.573Z,101870.22
2023-02-12T03:38:05.059Z,101864.28
2023-02-12T03:40:45.324Z,101882.16
2023-02-12T03:43:44.362Z,101879.63
2023-02-12T03:46:34.581Z,101884.72
2023-02-12T03:49:35.570Z,101876.19
2023-02-12T03:52:07.540Z,101884.72
2023-02-12T03:54:39.590Z,101885.59
2023-02-12T03:57:17.834Z,101854.97
2023-02-12T03:59:50.645Z,101884.72
2023-02-12T04:02:22.649Z,101865.22
2023-02-12T04:04:54.560Z,101887.34
2023-02-12T04:07:26.571Z,101873.69
2023-02-12T04:09:58.697Z,101902.59
2023-02-12T04:12:40.948Z,101918.78
2023-02-12T04:15:49.953Z,101922.19
2023-02-12T04:18:32.502Z,101901.78
2023-02-12T04:21:29.530Z,101920.47
2023-02-12T04:24:20.390Z,101917.06
2023-02-12T04:26:55.495Z,101927.31
2023-02-12T04:29:48.733Z,101930.69
2023-02-12T04:32:39.561Z,101933.22
2023-02-12T04:35:11.244Z,101928.09
2023-02-12T04:37:50.580Z,101906.03
2023-02-12T04:40:23.433Z,101883.97
2023-02-12T04:42:55.442Z,101878.84
2023-02-12T04:45:29.988Z,101937.53
2023-02-12T04:48:02.505Z,101941.81
2023-02-12T04:50:43.388Z,101927.38
2023-02-12T04:53:15.337Z,101909.53
2023-02-12T04:55:48.046Z,101948.69
2023-02-12T04:58:20.264Z,101933.38
2023-02-12T05:00:52.277Z,101942.72
2023-02-12T05:03:24.281Z,101952.97
2023-02-12T05:05:56.565Z,101947.00
2023-02-12T05:08:28.734Z,101947.00
2023-02-12T05:11:06.703Z,101968.34
2023-02-12T05:13:39.194Z,101973.41
2023-02-12T05:16:11.151Z,101963.22
2023-02-12T05:18:43.403Z,101982.81
2023-02-12T05:21:15.627Z,101986.22
2023-02-12T05:23:47.588Z,102013.50
2023-02-12T05:26:22.429Z,102012.63
2023-02-12T05:28:54.406Z,102026.28
2023-02-12T05:31:26.638Z,101993.06
2023-02-12T05:33:58.716Z,101980.28
2023-02-12T05:36:30.741Z,102027.13
2023-02-12T05:39:02.790Z,102030.53
2023-02-12T05:41:35.909Z,101991.34
2023-02-12T05:44:07.919Z,102018.63
2023-02-12T05:46:40.003Z,102014.38
2023-02-12T05:49:12.081Z,102054.41
2023-02-12T05:51:43.999Z,102039.06
2023-02-12T05:54:16.068Z,102068.00
2023-02-12T05:56:48.300Z,102067.19
2023-02-12T05:59:23.113Z,102068.88
2023-02-12T06:01:55.439Z,102070.56
2023-02-12T06:04:29.305Z,102045.88
2023-02-12T06:07:01.563Z,102085.03
2023-02-12T06:09:35.303Z,102047.56
2023-02-12T06:12:07.336Z,102073.13
2023-02-12T06:14:41.322Z,102076.53
2023-02-12T06:17:13.376Z,102055.22
2023-02-12T06:19:45.381Z,102083.34
2023-02-12T06:22:17.401Z,102067.16
2023-02-12T06:24:49.334Z,102116.59
2023-02-12T06:27:21.341Z,102118.31
2023-02-12T06:29:53.272Z,102074.00
2023-02-12T06:32:25.605Z,102125.09
2023-02-12T06:34:57.596Z,102096.13
2023-02-12T06:37:29.770Z,102134.47
2023-02-12T06:40:01.730Z,102116.56
2023-02-12T06:42:33.769Z,102084.22
2023-02-12T06:45:05.918Z,102104.66
2023-02-12T06:47:37.819Z,102114.03
2023-02-12T06:50:10.078Z,102146.41
2023-02-12T06:52:42.033Z,102136.19
2023-02-12T06:55:14.126Z,102131.06
2023-02-12T06:57:46.047Z,102148.13
2023-02-12T07:00:18.874Z,102144.69
2023-02-12T07:02:58.208Z,102146.41
2023-02-12T07:05:30.227Z,102155.78
2023-02-12T07:08:02.242Z,102142.16
2023-02-12T07:10:34.206Z,102123.41
2023-02-12T07:13:06.174Z,102146.44
2023-02-12T07:15:40.835Z,102148.13
2023-02-12T07:18:12.928Z,102150.66
2023-02-12T07:20:44.892Z,102107.22
2023-02-12T07:23:16.798Z,102159.19
2023-02-12T07:25:59.952Z,102152.38
2023-02-12T07:28:35.516Z,102128.50
2023-02-12T07:31:16.177Z,102167.72
2023-02-12T07:33:48.882Z,102166.88
2023-02-12T07:36:21.560Z,102167.72
2023-02-12T07:38:54.976Z,102164.31
2023-02-12T07:41:29.769Z,102183.91
2023-02-12T07:44:11.603Z,102181.34
2023-02-12T07:46:48.467Z,102180.50
2023-02-12T07:49:22.738Z,102182.19
2023-02-12T07:51:57.185Z,102146.44
2023-02-12T07:54:29.119Z,102194.16
2023-02-12T07:57:01.123Z,102167.69
2023-02-12T07:59:33.271Z,102171.09
2023-02-12T08:02:05.296Z,102127.66
2023-02-12T08:04:37.315Z,102166.84
2023-02-12T08:07:09.290Z,102171.06
2023-02-12T08:09:41.320Z,102193.22
2023-02-12T08:12:13.212Z,102160.00
2023-02-12T08:14:45.485Z,102200.94
2023-02-12T08:17:17.512Z,102159.97
2023-02-12T08:19:49.469Z,102191.50
2023-02-12T08:22:21.400Z,102194.09
2023-02-12T08:24:53.373Z,102170.22
2023-02-12T08:27:25.312Z,102133.59
2023-02-12T08:29:57.268Z,102178.78
2023-02-12T08:32:29.765Z,102175.34
2023-02-12T08:35:01.871Z,102206.91
2023-02-12T08:37:33.806Z,102166.81
2023-02-12T08:40:06.294Z,102212.84
2023-02-12T08:42:38.278Z,102199.16
2023-02-12T08:45:10.453Z,102222.94
2023-02-12T08:47:42.417Z,102210.19
2023-02-12T08:50:14.525Z,102214.50
2023-02-12T08:52:46.754Z,102223.00
2023-02-12T08:55:18.824Z,102214.59
2023-02-12T08:57:50.824Z,102203.44
2023-02-12T09:00:23.383Z,102208.53
2023-02-12T09:02:55.681Z,102205.00
2023-02-12T09:05:27.665Z,102164.06
2023-02-12T09:07:59.796Z,102199.88
2023-02-12T09:10:32.034Z,102193.84
2023-02-12T09:13:04.019Z,102165.63
2023-02-12T09:15:40.174Z,102214.34
2023-02-12T09:18:14.270Z,102222.91
2023-02-12T09:20:46.269Z,102177.72
2023-02-12T09:23:18.413Z,102205.94
2023-02-12T09:25:50.416Z,102206.88
2023-02-12T09:28:22.769Z,102208.50
2023-02-12T09:30:54.734Z,102230.63
2023-02-12T09:33:26.769Z,102194.88
2023-02-12T09:36:05.406Z,102227.25
2023-02-12T09:38:37.749Z,102234.00
2023-02-12T09:41:43.696Z,102246.91
2023-02-12T09:44:37.808Z,102244.97
2023-02-12T09:47:09.780Z,102257.03
2023-02-12T09:49:57.259Z,102263.03
2023-02-12T09:52:30.491Z,102245.09
2023-02-12T09:55:03.001Z,102263.94
2023-02-12T09:57:38.310Z,102279.19
2023-02-12T10:00:16.013Z,102255.16
2023-02-12T10:02:52.372Z,102238.22
2023-02-12T10:05:29.425Z,102215.13
2023-02-12T10:08:10.298Z,102274.72
2023-02-12T10:11:19.119Z,102268.66
2023-02-12T10:14:24.577Z,102273.03
2023-02-12T10:17:18.261Z,102262.59
2023-02-12T10:20:12.201Z,102267.66
2023-02-12T10:22:56.207Z,102268.53
2023-02-12T10:25:31.609Z,102264.13
2023-02-12T10:28:12.884Z,102233.31
2023-02-12T10:30:59.014Z,102194.41
2023-02-12T10:33:44.873Z,102244.41
2023-02-12T10:36:19.692Z,102246.91
2023-02-12T10:38:58.608Z,102222.94
2023-02-12T10:41:32.859Z,102232.38
2023-02-12T10:44:04.836Z,102237.50
2023-02-12T10:46:37.098Z,102237.72
2023-02-12T10:49:13.893Z,102245.34
2023-02-12T10:52:25.141Z,102255.72
2023-02-12T10:54:57.184Z,102252.13
2023-02-12T10:57:31.750Z,102209.38
2023-02-12T11:00:29.296Z,102268.13
2023-02-12T11:03:12.139Z,102268.84
2023-02-12T11:05:45.107Z,102261.34
2023-02-12T11:08:39.093Z,102259.63
2023-02-12T11:11:27.473Z,102258.97
2023-02-12T11:14:20.475Z,102235.63
2023-02-12T11:16:57.941Z,102233.13
2023-02-12T11:19:31.917Z,102217.59
2023-02-12T11:22:19.102Z,102251.72
2023-02-12T11:25:02.309Z,102246.41
2023-02-12T11:27:34.716Z,102247.25
2023-02-12T11:30:22.619Z,102238.06
2023-02-12T11:32:54.578Z,102220.03
2023-02-12T11:35:28.855Z,102235.97
2023-02-12T11:38:02.876Z,102231.88
2023-02-12T11:40:35.012Z,102215.63
2023-02-12T11:43:09.912Z,102220.78
2023-02-12T11:45:48.421Z,102240.44
2023-02-12T11:48:34.241Z,102242.91
2023-02-12T11:51:19.406Z,102244.50
2023-02-12T11:53:54.945Z,102244.72
2023-02-12T11:56:42.447Z,102235.44
2023-02-12T11:59:36.935Z,102235.31
2023-02-12T12:02:14.583Z,102235.22
2023-02-12T12:04:52.345Z,102225.19
2023-02-12T12:07:32.343Z,102225.13
2023-02-12T12:10:16.349Z,102213.34
2023-02-12T12:12:50.896Z,102230.34
2023-02-12T12:15:52.531Z,102237.69
2023-02-12T12:18:45.280Z,102235.88
2023-02-12T12:21:36.976Z,102228.06
2023-02-12T12:24:20.680Z,102214.84
2023-02-12T12:27:59.782Z,102223.94
2023-02-12T12:30:34.649Z,102231.34
2023-02-12T12:33:29.828Z,102220.16
2023-02-12T12:36:13.923Z,102212.47
2023-02-12T12:39:14.581Z,102207.53
2023-02-12T12:42:07.984Z,102203.03
2023-02-12T12:44:58.249Z,102199.44
2023-02-12T12:48:15.335Z,102196.22
2023-02-12T12:51:05.432Z,102200.59
2023-02-12T12:53:52.957Z,102197.09
2023-02-12T12:56:49.710Z,102195.28
2023-02-12T12:59:21.863Z,102198.47
2023-02-12T13:02:19.672Z,102192.41
2023-02-12T13:05:30.536Z,102166.69
2023-02-12T13:08:46.976Z,102187.38
2023-02-12T13:11:46.625Z,102182.53
2023-02-12T13:14:29.144Z,102180.72
2023-02-12T13:17:19.894Z,102191.63
2023-02-12T13:20:20.353Z,102176.63
2023-02-12T13:23:07.419Z,102175.78
2023-02-12T13:25:51.848Z,102171.44
2023-02-12T13:28:36.773Z,102185.69
2023-02-12T13:31:32.065Z,102162.03
2023-02-12T13:34:14.113Z,102179.69
2023-02-12T13:36:46.967Z,102155.34
2023-02-12T13:39:35.609Z,102193.66
2023-02-12T13:42:07.402Z,102189.53
2023-02-12T13:44:51.601Z,102195.47
2023-02-12T13:47:57.193Z,102201.66
2023-02-12T13:50:35.217Z,102188.56
2023-02-12T13:53:16.288Z,102193.03
2023-02-12T13:56:07.371Z,102160.00
2023-02-12T13:58:40.236Z,102193.22
2023-02-12T14:01:14.940Z,102193.19
2023-02-12T14:03:47.574Z,102188.72
2023-02-12T14:06:21.976Z,102186.59
2023-02-12T14:09:09.558Z,102200.13
2023-02-12T14:12:10.355Z,102194.94
2023-02-12T14:14:50.742Z,102185.78
2023-02-12T14:17:28.677Z,102187.63
2023-02-12T14:20:28.717Z,102184.19
2023-02-12T14:23:02.533Z,102188.56
2023-02-12T14:25:40.438Z,102177.53
2023-02-12T14:28:29.445Z,102178.28
2023-02-12T14:31:20.238Z,102192.75
2023-02-12T14:34:16.857Z,102185.09
2023-02-12T14:37:09.290Z,102164.75
2023-02-12T14:39:41.347Z,102125.63
2023-02-12T14:42:13.219Z,102193.72
2023-02-12T14:44:56.311Z,102196.38
2023-02-12T14:47:30.952Z,102194.06
2023-02-12T14:50:29.205Z,102190.59
2023-02-12T14:53:13.211Z,102197.56
2023-02-12T14:55:47.521Z,102198.47
2023-02-12T14:58:24.814Z,102125.28
2023-02-12T15:01:00.312Z,102182.34
2023-02-12T15:03:43.460Z,102199.38
2023-02-12T15:06:27.882Z,102191.00
2023-02-12T15:09:07.810Z,102198.72
2023-02-12T15:11:47.389Z,102181.66
2023-02-12T15:14:23.736Z,102195.38
2023-02-12T15:17:08.857Z,102202.28
2023-02-12T15:20:00.207Z,102199.75
2023-02-12T15:22:38.565Z,102197.25
2023-02-12T15:25:17.848Z,102209.25
2023-02-12T15:27:51.212Z,102202.41
2023-02-12T15:30:27.079Z,102148.81
2023-02-12T15:33:03.426Z,102170.91
2023-02-12T15:35:39.539Z,102221.22
2023-02-12T15:38:27.732Z,102203.34
2023-02-12T15:41:01.732Z,102169.31
2023-02-12T15:43:40.137Z,102223.00
2023-02-12T15:46:17.514Z,102227.28
2023-02-12T15:48:49.880Z,102227.28
2023-02-12T15:51:35.701Z,102235.84
2023-02-12T15:54:08.082Z,102233.31
2023-02-12T15:56:42.009Z,102232.44
2023-02-12T15:59:27.245Z,102222.22
2023-02-12T16:02:03.691Z,102214.59
2023-02-12T16:04:37.613Z,102247.88
2023-02-12T16:07:12.984Z,102238.50
2023-02-12T16:09:45.984Z,102239.34
2023-02-12T16:12:21.965Z,102240.22
2023-02-12T16:14:56.436Z,102216.34
2023-02-12T16:17:35.312Z,102229.97
2023-02-12T16:20:29.816Z,102220.56
2023-02-12T16:23:06.662Z,102230.84
2023-02-12T16:25:40.629Z,102206.13
2023-02-12T16:28:22.538Z,102230.84
2023-02-12T16:31:08.487Z,102224.03
2023-02-12T16:33:40.347Z,102240.22
2023-02-12T16:36:22.820Z,102237.66
2023-02-12T16:39:06.401Z,102224.03
2023-02-12T16:42:04.726Z,102233.38
2023-02-12T16:44:36.625Z,102219.75
2023-02-12T16:47:21.371Z,102200.13
2023-02-12T16:50:02.099Z,102179.66
2023-02-12T16:52:36.863Z,102226.53
2023-02-12T16:55:17.854Z,102194.16
2023-02-12T16:57:49.794Z,102217.16
2023-02-12T17:00:22.860Z,102197.56
2023-02-12T17:02:56.269Z,102160.91
2023-02-12T17:05:28.211Z,102173.66
2023-02-12T17:08:00.090Z,102193.28
2023-02-12T17:10:31.980Z,102187.31
2023-02-12T17:13:03.909Z,102202.66
2023-02-12T17:15:43.070Z,102202.66
2023-02-12T17:18:18.286Z,102178.75
2023-02-12T17:21:19.305Z,102196.69
2023-02-12T17:23:51.385Z,102169.41
2023-02-12T17:26:24.655Z,102184.72
2023-02-12T17:29:05.568Z,102183.03
2023-02-12T17:31:37.993Z,102174.47
2023-02-12T17:34:10.178Z,102178.66
2023-02-12T17:36:42.491Z,102151.38
2023-02-12T17:39:15.713Z,102197.47
2023-02-12T17:41:47.827Z,102196.59
2023-02-12T17:44:19.793Z,102189.75
2023-02-12T17:46:52.225Z,102154.75
2023-02-12T17:49:24.201Z,102146.22
2023-02-12T17:51:56.096Z,102175.25
2023-02-12T17:54:28.363Z,102217.88
2023-02-12T17:57:00.269Z,102204.25
2023-02-12T17:59:32.712Z,102223.84
2023-02-12T18:02:04.846Z,102201.69
2023-02-12T18:04:36.915Z,102219.56
2023-02-12T18:07:09.578Z,102212.72
2023-02-12T18:09:41.715Z,102240.91
2023-02-12T18:12:13.694Z,102213.56
2023-02-12T18:14:45.798Z,102201.63
2023-02-12T18:17:17.657Z,102209.25
2023-02-12T18:19:50.069Z,102239.13
2023-02-12T18:22:22.454Z,102233.97
2023-02-12T18:24:56.009Z,102222.94
2023-02-12T18:27:28.269Z,102206.63
2023-02-12T18:30:00.220Z,102179.31
2023-02-12T18:32:32.209Z,102207.50
2023-02-12T18:35:05.663Z,102182.69
2023-02-12T18:37:37.720Z,102144.31
2023-02-12T18:40:09.960Z,102191.25
2023-02-12T18:42:42.201Z,102209.22
2023-02-12T18:45:14.226Z,102179.34
2023-02-12T18:47:46.361Z,102187.88
2023-02-12T18:50:18.370Z,102182.78
2023-02-12T18:52:50.299Z,102175.91
2023-02-12T18:55:22.301Z,102197.25
2023-02-12T18:57:55.061Z,102217.78
2023-02-12T19:00:27.142Z,102187.94
2023-02-12T19:02:59.170Z,102171.78
2023-02-12T19:05:31.661Z,102169.28
2023-02-12T19:08:03.887Z,102176.16
2023-02-12T19:10:39.329Z,102218.81
2023-02-12T19:13:11.350Z,102214.59
2023-02-12T19:15:43.464Z,102192.41
2023-02-12T19:18:16.844Z,102145.50
2023-02-12T19:20:48.779Z,102195.00
2023-02-12T19:23:20.698Z,102158.34
2023-02-12T19:25:52.644Z,102146.44
2023-02-12T19:28:24.630Z,102191.59
2023-02-12T19:30:57.013Z,102161.75
2023-02-12T19:33:29.247Z,102196.72
2023-02-12T19:36:01.212Z,102183.09
2023-02-12T19:38:35.209Z,102190.75
2023-02-12T19:41:10.586Z,102189.03
2023-02-12T19:43:43.833Z,102189.06
2023-02-12T19:46:18.804Z,102201.84
2023-02-12T19:48:56.138Z,102196.72
2023-02-12T19:51:31.940Z,102193.28
2023-02-12T19:54:07.291Z,102160.06
2023-02-12T19:56:39.977Z,102166.00
2023-02-12T19:59:15.754Z,102154.06
2023-02-12T20:01:48.773Z,102174.53
2023-02-12T20:04:22.507Z,102166.84
2023-02-12T20:06:54.922Z,102158.28
2023-02-12T20:09:27.009Z,102148.06
2023-02-12T20:12:00.021Z,102148.94
2023-02-12T20:14:31.903Z,102118.25
2023-02-12T20:17:03.849Z,102159.16
2023-02-12T20:19:36.050Z,102155.75
2023-02-12T20:22:08.229Z,102150.63
2023-02-12T20:24:40.294Z,102153.16
2023-02-12T20:27:13.241Z,102157.44
2023-02-12T20:29:45.222Z,102148.91
2023-02-12T20:32:17.388Z,102165.97
2023-02-12T20:34:52.541Z,102166.78
2023-02-12T20:37:24.550Z,102154.84
2023-02-12T20:39:56.697Z,102130.13
2023-02-12T20:42:28.641Z,102125.00
2023-02-12T20:45:00.547Z,102134.38
2023-02-12T20:47:33.781Z,102135.22
2023-02-12T20:50:06.863Z,102128.38
2023-02-12T20:52:38.966Z,102138.59
2023-02-12T20:55:10.978Z,102126.66
2023-02-12T20:57:42.990Z,102121.50
2023-02-12T21:00:15.677Z,102132.56
2023-02-12T21:02:47.561Z,102101.03
2023-02-12T21:05:19.525Z,102106.97
2023-02-12T21:07:51.596Z,102123.16
2023-02-12T21:10:23.813Z,102106.22
2023-02-12T21:12:55.752Z,102115.53
2023-02-12T21:15:27.686Z,102070.41
2023-02-12T21:17:59.617Z,102061.91
2023-02-12T21:20:31.600Z,102119.81
2023-02-12T21:23:03.597Z,102070.41
2023-02-12T21:25:35.641Z,102048.31
2023-02-12T21:28:07.645Z,102096.81
2023-02-12T21:30:39.718Z,102082.28
2023-02-12T21:33:11.703Z,102111.22
2023-02-12T21:35:43.625Z,102094.97
2023-02-12T21:38:15.552Z,102075.38
2023-02-12T21:40:47.564Z,102102.63
2023-02-12T21:43:20.560Z,102100.06
2023-02-12T21:45:52.769Z,102084.69
2023-02-12T21:48:24.849Z,102070.16
2023-02-12T21:50:57.723Z,102096.59
2023-02-12T21:53:29.941Z,102084.63
2023-02-12T21:56:04.098Z,102089.72
2023-02-12T21:58:35.956Z,102080.41
2023-02-12T22:01:16.099Z,102088.88
2023-02-12T22:03:48.054Z,102085.41
2023-02-12T22:06:22.559Z,102081.09
2023-02-12T22:08:56.140Z,102075.13
2023-02-12T22:11:28.222Z,102058.16
2023-02-12T22:14:00.396Z,102082.06
2023-02-12T22:16:32.617Z,102033.53
2023-02-12T22:19:05.935Z,102029.25
2023-02-12T22:21:40.557Z,102030.88
2023-02-12T22:24:15.618Z,102075.09
2023-02-12T22:26:47.569Z,102056.41
2023-02-12T22:29:20.213Z,102057.31
2023-02-12T22:31:52.867Z,102065.72
2023-02-12T22:34:24.868Z,102065.72
2023-02-12T22:36:56.821Z,102034.25
2023-02-12T22:39:31.425Z,102060.63
2023-02-12T22:42:03.591Z,102025.75
2023-02-12T22:44:36.341Z,102055.50
2023-02-12T22:47:08.280Z,102040.22
2023-02-12T22:49:40.256Z,102031.69
2023-02-12T22:52:12.752Z,102054.69
2023-02-12T22:54:45.103Z,101995.94
2023-02-12T22:57:18.129Z,102039.22
2023-02-12T22:59:50.137Z,101998.38
2023-02-12T23:02:22.059Z,102034.03
2023-02-12T23:04:53.951Z,102030.59
2023-02-12T23:07:26.158Z,102006.84
2023-02-12T23:09:58.052Z,102018.72
2023-02-12T23:12:29.982Z,102030.59
2023-02-12T23:15:01.872Z,102012.59
2023-02-12T23:17:33.756Z,101993.06
2023-02-12T23:20:06.017Z,102004.06
2023-02-12T23:22:37.942Z,102010.81
2023-02-12T23:25:10.080Z,102011.63
2023-02-12T23:27:42.017Z,102012.38
2023-02-12T23:30:14.605Z,102009.69
2023-02-12T23:32:46.586Z,101986.78
2023-02-12T23:35:18.540Z,101998.56
2023-02-12T23:37:50.704Z,101990.03
2023-02-12T23:40:22.723Z,101987.47
2023-02-12T23:42:54.758Z,101964.53
2023-02-12T23:45:28.052Z,101985.78
2023-02-12T23:48:00.099Z,101978.81
2023-02-12T23:50:32.328Z,101966.00
2023-02-12T23:53:04.233Z,101955.84
2023-02-12T23:55:37.614Z,101988.94
2023-02-12T23:58:10.336Z,101990.59
